sensor_id;sensor_type;location;lat;lon;timestamp;P1;durP1;ratioP1;P2;durP2;ratioP2
23474;SDS011;11910;52.086;21.066;2022-09-17T00:00:07;7.50;;;6.63;;
23474;SDS011;11910;52.086;21.066;2022-09-17T00:02:33;6.97;;;6.15;;
23474;SDS011;11910;52.086;21.066;2022-09-17T00:04:59;7.82;;;6.82;;
23474;SDS011;11910;52.086;21.066;2022-09-17T00:07:25;6.40;;;5.35;;
23474;SDS011;11910;52.086;21.066;2022-09-17T00:09:50;6.55;;;5.75;;
23474;SDS011;11910;52.086;21.066;2022-09-17T00:12:16;9.50;;;6.75;;
23474;SDS011;11910;52.086;21.066;2022-09-17T00:14:42;8.55;;;5.78;;
23474;SDS011;11910;52.086;21.066;2022-09-17T00:17:07;9.00;;;5.93;;
23474;SDS011;11910;52.086;21.066;2022-09-17T00:19:33;9.00;;;6.38;;
23474;SDS011;11910;52.086;21.066;2022-09-17T00:21:59;7.95;;;5.25;;
23474;SDS011;11910;52.086;21.066;2022-09-17T00:24:24;6.38;;;4.88;;
23474;SDS011;11910;52.086;21.066;2022-09-17T00:26:50;5.75;;;4.95;;
23474;SDS011;11910;52.086;21.066;2022-09-17T00:29:16;6.03;;;4.63;;
23474;SDS011;11910;52.086;21.066;2022-09-17T00:31:41;8.80;;;6.70;;
23474;SDS011;11910;52.086;21.066;2022-09-17T00:34:07;6.00;;;4.40;;
23474;SDS011;11910;52.086;21.066;2022-09-17T00:36:34;9.43;;;5.20;;
23474;SDS011;11910;52.086;21.066;2022-09-17T00:39:04;6.90;;;5.00;;
23474;SDS011;11910;52.086;21.066;2022-09-17T00:41:31;8.55;;;5.35;;
23474;SDS011;11910;52.086;21.066;2022-09-17T00:43:59;5.63;;;4.43;;
23474;SDS011;11910;52.086;21.066;2022-09-17T00:46:34;7.35;;;4.80;;
23474;SDS011;11910;52.086;21.066;2022-09-17T00:51:48;5.95;;;4.57;;
23474;SDS011;11910;52.086;21.066;2022-09-17T00:54:21;6.75;;;5.50;;
23474;SDS011;11910;52.086;21.066;2022-09-17T00:56:48;7.15;;;5.10;;
23474;SDS011;11910;52.086;21.066;2022-09-17T00:59:15;5.35;;;4.70;;
23474;SDS011;11910;52.086;21.066;2022-09-17T01:01:43;8.20;;;5.35;;
23474;SDS011;11910;52.086;21.066;2022-09-17T01:04:15;7.25;;;6.32;;
23474;SDS011;11910;52.086;21.066;2022-09-17T01:28:33;7.55;;;6.05;;
23474;SDS011;11910;52.086;21.066;2022-09-17T01:47:30;7.07;;;6.15;;
23474;SDS011;11910;52.086;21.066;2022-09-17T01:50:11;7.93;;;5.88;;
23474;SDS011;11910;52.086;21.066;2022-09-17T01:52:42;8.48;;;5.30;;
23474;SDS011;11910;52.086;21.066;2022-09-17T01:55:10;8.52;;;6.20;;
23474;SDS011;11910;52.086;21.066;2022-09-17T01:57:41;6.07;;;4.70;;
23474;SDS011;11910;52.086;21.066;2022-09-17T02:00:20;8.05;;;5.90;;
23474;SDS011;11910;52.086;21.066;2022-09-17T02:07:57;7.03;;;5.30;;
23474;SDS011;11910;52.086;21.066;2022-09-17T02:10:31;10.48;;;5.97;;
23474;SDS011;11910;52.086;21.066;2022-09-17T02:13:06;6.20;;;5.43;;
23474;SDS011;11910;52.086;21.066;2022-09-17T02:15:39;8.00;;;5.97;;
23474;SDS011;11910;52.086;21.066;2022-09-17T02:18:12;9.82;;;6.70;;
23474;SDS011;11910;52.086;21.066;2022-09-17T02:20:53;9.90;;;6.38;;
23474;SDS011;11910;52.086;21.066;2022-09-17T02:23:33;8.18;;;6.15;;
23474;SDS011;11910;52.086;21.066;2022-09-17T02:26:08;9.70;;;7.20;;
23474;SDS011;11910;52.086;21.066;2022-09-17T02:28:43;7.50;;;5.75;;
23474;SDS011;11910;52.086;21.066;2022-09-17T02:31:14;6.93;;;5.90;;
23474;SDS011;11910;52.086;21.066;2022-09-17T02:33:40;8.60;;;6.30;;
23474;SDS011;11910;52.086;21.066;2022-09-17T02:36:08;9.95;;;6.88;;
23474;SDS011;11910;52.086;21.066;2022-09-17T02:38:34;10.15;;;7.22;;
23474;SDS011;11910;52.086;21.066;2022-09-17T02:41:07;7.32;;;5.53;;
23474;SDS011;11910;52.086;21.066;2022-09-17T02:46:42;6.95;;;5.50;;
23474;SDS011;11910;52.086;21.066;2022-09-17T02:54:17;7.03;;;6.32;;
23474;SDS011;11910;52.086;21.066;2022-09-17T02:59:37;8.88;;;6.25;;
23474;SDS011;11910;52.086;21.066;2022-09-17T03:02:15;7.65;;;6.63;;
23474;SDS011;11910;52.086;21.066;2022-09-17T03:04:46;8.13;;;6.03;;
23474;SDS011;11910;52.086;21.066;2022-09-17T03:07:13;7.47;;;6.00;;
23474;SDS011;11910;52.086;21.066;2022-09-17T03:09:40;8.35;;;6.00;;
23474;SDS011;11910;52.086;21.066;2022-09-17T03:12:07;6.32;;;5.72;;
23474;SDS011;11910;52.086;21.066;2022-09-17T03:14:34;8.00;;;5.40;;
23474;SDS011;11910;52.086;21.066;2022-09-17T03:17:00;9.60;;;5.43;;
23474;SDS011;11910;52.086;21.066;2022-09-17T03:19:25;8.60;;;6.70;;
23474;SDS011;11910;52.086;21.066;2022-09-17T03:21:52;6.43;;;5.63;;
23474;SDS011;11910;52.086;21.066;2022-09-17T03:24:17;8.82;;;6.05;;
23474;SDS011;11910;52.086;21.066;2022-09-17T03:26:43;6.43;;;5.63;;
23474;SDS011;11910;52.086;21.066;2022-09-17T03:29:11;8.15;;;6.30;;
23474;SDS011;11910;52.086;21.066;2022-09-17T03:31:37;6.82;;;5.50;;
23474;SDS011;11910;52.086;21.066;2022-09-17T03:34:03;6.57;;;5.30;;
23474;SDS011;11910;52.086;21.066;2022-09-17T03:36:28;8.80;;;6.20;;
23474;SDS011;11910;52.086;21.066;2022-09-17T03:38:55;7.78;;;6.70;;
23474;SDS011;11910;52.086;21.066;2022-09-17T03:41:21;6.93;;;5.53;;
23474;SDS011;11910;52.086;21.066;2022-09-17T03:43:47;5.95;;;5.35;;
23474;SDS011;11910;52.086;21.066;2022-09-17T03:46:12;7.85;;;5.32;;
23474;SDS011;11910;52.086;21.066;2022-09-17T03:48:38;7.05;;;5.10;;
23474;SDS011;11910;52.086;21.066;2022-09-17T03:51:04;10.18;;;6.10;;
23474;SDS011;11910;52.086;21.066;2022-09-17T03:53:30;7.43;;;5.63;;
23474;SDS011;11910;52.086;21.066;2022-09-17T03:55:57;6.30;;;4.95;;
23474;SDS011;11910;52.086;21.066;2022-09-17T03:58:24;11.77;;;5.82;;
23474;SDS011;11910;52.086;21.066;2022-09-17T04:00:50;6.28;;;5.05;;
23474;SDS011;11910;52.086;21.066;2022-09-17T04:03:17;6.55;;;4.95;;
23474;SDS011;11910;52.086;21.066;2022-09-17T04:05:43;6.68;;;5.53;;
23474;SDS011;11910;52.086;21.066;2022-09-17T04:08:09;6.60;;;5.72;;
23474;SDS011;11910;52.086;21.066;2022-09-17T04:10:34;8.05;;;6.47;;
23474;SDS011;11910;52.086;21.066;2022-09-17T04:13:00;10.18;;;7.13;;
23474;SDS011;11910;52.086;21.066;2022-09-17T04:15:26;8.23;;;6.95;;
23474;SDS011;11910;52.086;21.066;2022-09-17T04:17:55;9.57;;;6.82;;
23474;SDS011;11910;52.086;21.066;2022-09-17T04:20:22;6.45;;;5.72;;
23474;SDS011;11910;52.086;21.066;2022-09-17T04:22:48;6.75;;;5.72;;
23474;SDS011;11910;52.086;21.066;2022-09-17T04:25:14;10.73;;;7.32;;
23474;SDS011;11910;52.086;21.066;2022-09-17T04:27:40;10.93;;;7.32;;
23474;SDS011;11910;52.086;21.066;2022-09-17T04:30:05;9.05;;;7.80;;
23474;SDS011;11910;52.086;21.066;2022-09-17T04:32:31;9.88;;;6.95;;
23474;SDS011;11910;52.086;21.066;2022-09-17T04:34:57;9.80;;;6.43;;
23474;SDS011;11910;52.086;21.066;2022-09-17T04:37:23;9.05;;;6.72;;
23474;SDS011;11910;52.086;21.066;2022-09-17T04:39:49;7.82;;;6.57;;
23474;SDS011;11910;52.086;21.066;2022-09-17T04:42:15;7.22;;;6.53;;
23474;SDS011;11910;52.086;21.066;2022-09-17T04:44:41;9.52;;;5.88;;
23474;SDS011;11910;52.086;21.066;2022-09-17T04:47:07;7.70;;;5.38;;
23474;SDS011;11910;52.086;21.066;2022-09-17T04:49:33;7.57;;;5.78;;
23474;SDS011;11910;52.086;21.066;2022-09-17T04:51:58;8.88;;;6.15;;
23474;SDS011;11910;52.086;21.066;2022-09-17T04:54:24;9.85;;;6.22;;
23474;SDS011;11910;52.086;21.066;2022-09-17T04:56:50;6.24;;;5.49;;
23474;SDS011;11910;52.086;21.066;2022-09-17T04:59:16;7.00;;;5.35;;
23474;SDS011;11910;52.086;21.066;2022-09-17T05:01:41;7.45;;;5.80;;
23474;SDS011;11910;52.086;21.066;2022-09-17T05:04:08;7.72;;;6.13;;
23474;SDS011;11910;52.086;21.066;2022-09-17T05:06:34;7.13;;;6.28;;
23474;SDS011;11910;52.086;21.066;2022-09-17T05:08:59;8.38;;;6.03;;
23474;SDS011;11910;52.086;21.066;2022-09-17T05:11:26;6.53;;;5.88;;
23474;SDS011;11910;52.086;21.066;2022-09-17T05:13:52;12.18;;;6.78;;
23474;SDS011;11910;52.086;21.066;2022-09-17T05:16:18;8.32;;;6.63;;
23474;SDS011;11910;52.086;21.066;2022-09-17T05:18:44;9.75;;;6.38;;
23474;SDS011;11910;52.086;21.066;2022-09-17T05:21:10;9.18;;;6.50;;
23474;SDS011;11910;52.086;21.066;2022-09-17T05:23:35;6.88;;;6.10;;
23474;SDS011;11910;52.086;21.066;2022-09-17T05:26:01;6.72;;;5.32;;
23474;SDS011;11910;52.086;21.066;2022-09-17T05:28:27;8.07;;;5.60;;
23474;SDS011;11910;52.086;21.066;2022-09-17T05:30:53;8.98;;;5.80;;
23474;SDS011;11910;52.086;21.066;2022-09-17T05:33:18;6.25;;;4.70;;
23474;SDS011;11910;52.086;21.066;2022-09-17T05:35:44;7.78;;;5.38;;
23474;SDS011;11910;52.086;21.066;2022-09-17T05:38:10;7.30;;;5.43;;
23474;SDS011;11910;52.086;21.066;2022-09-17T05:40:36;5.55;;;4.68;;
23474;SDS011;11910;52.086;21.066;2022-09-17T05:43:03;7.72;;;4.90;;
23474;SDS011;11910;52.086;21.066;2022-09-17T05:45:31;10.68;;;5.00;;
23474;SDS011;11910;52.086;21.066;2022-09-17T05:47:59;5.97;;;4.82;;
23474;SDS011;11910;52.086;21.066;2022-09-17T05:50:26;6.80;;;4.60;;
23474;SDS011;11910;52.086;21.066;2022-09-17T05:52:53;7.97;;;4.15;;
23474;SDS011;11910;52.086;21.066;2022-09-17T05:55:19;5.38;;;3.60;;
23474;SDS011;11910;52.086;21.066;2022-09-17T05:57:46;6.13;;;3.65;;
23474;SDS011;11910;52.086;21.066;2022-09-17T06:00:13;6.68;;;3.53;;
23474;SDS011;11910;52.086;21.066;2022-09-17T06:02:39;10.30;;;3.78;;
23474;SDS011;11910;52.086;21.066;2022-09-17T06:05:04;7.00;;;3.13;;
23474;SDS011;11910;52.086;21.066;2022-09-17T06:07:30;6.32;;;2.47;;
23474;SDS011;11910;52.086;21.066;2022-09-17T06:09:58;5.38;;;3.05;;
23474;SDS011;11910;52.086;21.066;2022-09-17T06:12:24;7.35;;;3.20;;
23474;SDS011;11910;52.086;21.066;2022-09-17T06:14:49;4.93;;;2.83;;
23474;SDS011;11910;52.086;21.066;2022-09-17T06:17:15;4.68;;;2.80;;
23474;SDS011;11910;52.086;21.066;2022-09-17T06:19:41;5.60;;;2.85;;
23474;SDS011;11910;52.086;21.066;2022-09-17T06:22:07;5.78;;;2.42;;
23474;SDS011;11910;52.086;21.066;2022-09-17T06:24:32;5.90;;;2.58;;
23474;SDS011;11910;52.086;21.066;2022-09-17T06:26:58;5.70;;;2.53;;
23474;SDS011;11910;52.086;21.066;2022-09-17T06:29:23;8.63;;;3.40;;
23474;SDS011;11910;52.086;21.066;2022-09-17T06:31:49;4.30;;;2.20;;
23474;SDS011;11910;52.086;21.066;2022-09-17T06:34:16;4.90;;;2.20;;
23474;SDS011;11910;52.086;21.066;2022-09-17T06:36:42;5.03;;;2.10;;
23474;SDS011;11910;52.086;21.066;2022-09-17T06:39:07;3.72;;;2.28;;
23474;SDS011;11910;52.086;21.066;2022-09-17T06:41:35;6.97;;;2.10;;
23474;SDS011;11910;52.086;21.066;2022-09-17T06:44:02;4.80;;;2.30;;
23474;SDS011;11910;52.086;21.066;2022-09-17T06:46:28;5.55;;;2.20;;
23474;SDS011;11910;52.086;21.066;2022-09-17T06:48:54;5.53;;;2.15;;
23474;SDS011;11910;52.086;21.066;2022-09-17T06:51:19;8.15;;;2.00;;
23474;SDS011;11910;52.086;21.066;2022-09-17T06:53:46;4.90;;;1.90;;
23474;SDS011;11910;52.086;21.066;2022-09-17T06:56:12;4.63;;;2.30;;
23474;SDS011;11910;52.086;21.066;2022-09-17T06:58:39;8.95;;;5.15;;
23474;SDS011;11910;52.086;21.066;2022-09-17T07:01:08;5.03;;;1.90;;
23474;SDS011;11910;52.086;21.066;2022-09-17T07:03:37;4.78;;;1.80;;
23474;SDS011;11910;52.086;21.066;2022-09-17T07:06:03;5.35;;;2.20;;
23474;SDS011;11910;52.086;21.066;2022-09-17T07:08:33;7.15;;;2.20;;
23474;SDS011;11910;52.086;21.066;2022-09-17T07:10:59;6.95;;;2.10;;
23474;SDS011;11910;52.086;21.066;2022-09-17T07:13:25;3.47;;;1.90;;
23474;SDS011;11910;52.086;21.066;2022-09-17T07:15:51;4.57;;;2.00;;
23474;SDS011;11910;52.086;21.066;2022-09-17T07:18:18;4.80;;;1.85;;
23474;SDS011;11910;52.086;21.066;2022-09-17T07:20:50;7.00;;;2.05;;
23474;SDS011;11910;52.086;21.066;2022-09-17T07:23:18;4.55;;;2.20;;
23474;SDS011;11910;52.086;21.066;2022-09-17T07:25:43;6.45;;;2.22;;
23474;SDS011;11910;52.086;21.066;2022-09-17T07:28:09;5.32;;;2.30;;
23474;SDS011;11910;52.086;21.066;2022-09-17T07:30:34;5.38;;;2.05;;
23474;SDS011;11910;52.086;21.066;2022-09-17T07:33:00;5.72;;;2.10;;
23474;SDS011;11910;52.086;21.066;2022-09-17T07:35:26;5.55;;;2.10;;
23474;SDS011;11910;52.086;21.066;2022-09-17T07:37:52;6.55;;;2.40;;
23474;SDS011;11910;52.086;21.066;2022-09-17T07:40:17;5.05;;;3.03;;
23474;SDS011;11910;52.086;21.066;2022-09-17T07:42:43;5.63;;;2.33;;
23474;SDS011;11910;52.086;21.066;2022-09-17T07:45:09;8.40;;;2.35;;
23474;SDS011;11910;52.086;21.066;2022-09-17T07:47:39;4.78;;;2.42;;
23474;SDS011;11910;52.086;21.066;2022-09-17T07:50:05;5.60;;;2.17;;
23474;SDS011;11910;52.086;21.066;2022-09-17T07:52:32;7.65;;;2.88;;
23474;SDS011;11910;52.086;21.066;2022-09-17T07:54:58;7.80;;;2.90;;
23474;SDS011;11910;52.086;21.066;2022-09-17T07:57:23;7.40;;;3.50;;
23474;SDS011;11910;52.086;21.066;2022-09-17T07:59:49;5.55;;;3.60;;
23474;SDS011;11910;52.086;21.066;2022-09-17T08:02:15;6.88;;;3.60;;
23474;SDS011;11910;52.086;21.066;2022-09-17T08:04:41;6.07;;;3.28;;
23474;SDS011;11910;52.086;21.066;2022-09-17T08:07:10;5.47;;;2.78;;
23474;SDS011;11910;52.086;21.066;2022-09-17T08:09:37;4.40;;;2.38;;
23474;SDS011;11910;52.086;21.066;2022-09-17T08:12:03;4.00;;;2.38;;
23474;SDS011;11910;52.086;21.066;2022-09-17T08:14:29;6.72;;;3.13;;
23474;SDS011;11910;52.086;21.066;2022-09-17T08:16:54;4.93;;;2.78;;
23474;SDS011;11910;52.086;21.066;2022-09-17T08:19:20;6.07;;;3.30;;
23474;SDS011;11910;52.086;21.066;2022-09-17T08:21:46;6.68;;;3.03;;
23474;SDS011;11910;52.086;21.066;2022-09-17T08:24:11;7.97;;;3.85;;
23474;SDS011;11910;52.086;21.066;2022-09-17T08:26:37;6.15;;;3.10;;
23474;SDS011;11910;52.086;21.066;2022-09-17T08:29:04;6.65;;;2.83;;
23474;SDS011;11910;52.086;21.066;2022-09-17T08:31:31;4.95;;;2.35;;
23474;SDS011;11910;52.086;21.066;2022-09-17T08:33:57;5.05;;;3.35;;
23474;SDS011;11910;52.086;21.066;2022-09-17T08:36:24;4.70;;;2.40;;
23474;SDS011;11910;52.086;21.066;2022-09-17T08:38:53;5.32;;;2.60;;
23474;SDS011;11910;52.086;21.066;2022-09-17T08:41:27;5.05;;;3.55;;
23474;SDS011;11910;52.086;21.066;2022-09-17T08:46:36;5.82;;;2.97;;
23474;SDS011;11910;52.086;21.066;2022-09-17T08:55:16;4.65;;;2.70;;
23474;SDS011;11910;52.086;21.066;2022-09-17T09:00:59;3.60;;;2.08;;
23474;SDS011;11910;52.086;21.066;2022-09-17T09:03:54;5.03;;;2.65;;
23474;SDS011;11910;52.086;21.066;2022-09-17T09:06:45;5.00;;;2.60;;
23474;SDS011;11910;52.086;21.066;2022-09-17T09:09:17;5.38;;;2.58;;
23474;SDS011;11910;52.086;21.066;2022-09-17T09:11:47;4.82;;;2.40;;
23474;SDS011;11910;52.086;21.066;2022-09-17T09:14:26;4.22;;;2.25;;
23474;SDS011;11910;52.086;21.066;2022-09-17T09:16:56;4.03;;;2.05;;
23474;SDS011;11910;52.086;21.066;2022-09-17T09:19:24;4.38;;;1.80;;
23474;SDS011;11910;52.086;21.066;2022-09-17T09:24:44;5.38;;;2.10;;
23474;SDS011;11910;52.086;21.066;2022-09-17T09:27:23;5.30;;;1.95;;
23474;SDS011;11910;52.086;21.066;2022-09-17T09:32:35;2.47;;;1.58;;
23474;SDS011;11910;52.086;21.066;2022-09-17T09:38:00;5.22;;;2.83;;
23474;SDS011;11910;52.086;21.066;2022-09-17T09:48:53;8.93;;;4.72;;
23474;SDS011;11910;52.086;21.066;2022-09-17T09:51:17;7.78;;;4.88;;
23474;SDS011;11910;52.086;21.066;2022-09-17T09:54:35;5.60;;;3.30;;
23474;SDS011;11910;52.086;21.066;2022-09-17T09:57:02;6.70;;;3.53;;
23474;SDS011;11910;52.086;21.066;2022-09-17T09:59:35;8.63;;;3.63;;
23474;SDS011;11910;52.086;21.066;2022-09-17T10:02:01;5.60;;;3.33;;
23474;SDS011;11910;52.086;21.066;2022-09-17T10:04:28;5.05;;;2.03;;
23474;SDS011;11910;52.086;21.066;2022-09-17T10:07:03;3.70;;;2.40;;
23474;SDS011;11910;52.086;21.066;2022-09-17T10:09:34;6.57;;;2.47;;
23474;SDS011;11910;52.086;21.066;2022-09-17T10:14:38;9.20;;;3.45;;
23474;SDS011;11910;52.086;21.066;2022-09-17T10:22:31;6.05;;;2.33;;
23474;SDS011;11910;52.086;21.066;2022-09-17T10:25:01;5.97;;;2.50;;
23474;SDS011;11910;52.086;21.066;2022-09-17T10:27:30;3.97;;;2.53;;
23474;SDS011;11910;52.086;21.066;2022-09-17T10:32:39;5.70;;;2.55;;
23474;SDS011;11910;52.086;21.066;2022-09-17T10:35:26;5.97;;;2.17;;
23474;SDS011;11910;52.086;21.066;2022-09-17T10:37:52;5.18;;;3.15;;
23474;SDS011;11910;52.086;21.066;2022-09-17T10:43:29;6.05;;;2.30;;
23474;SDS011;11910;52.086;21.066;2022-09-17T10:45:41;3.03;;;2.70;;
23474;SDS011;11910;52.086;21.066;2022-09-17T10:48:14;4.85;;;2.60;;
23474;SDS011;11910;52.086;21.066;2022-09-17T10:50:46;4.25;;;2.10;;
23474;SDS011;11910;52.086;21.066;2022-09-17T10:53:17;4.30;;;2.33;;
23474;SDS011;11910;52.086;21.066;2022-09-17T10:55:56;6.00;;;2.05;;
23474;SDS011;11910;52.086;21.066;2022-09-17T11:06:53;4.70;;;2.75;;
23474;SDS011;11910;52.086;21.066;2022-09-17T11:12:24;4.78;;;3.28;;
23474;SDS011;11910;52.086;21.066;2022-09-17T11:25:30;5.13;;;2.10;;
23474;SDS011;11910;52.086;21.066;2022-09-17T11:33:37;2.35;;;1.60;;
23474;SDS011;11910;52.086;21.066;2022-09-17T11:36:11;4.50;;;2.00;;
23474;SDS011;11910;52.086;21.066;2022-09-17T11:38:50;4.25;;;2.13;;
23474;SDS011;11910;52.086;21.066;2022-09-17T11:41:22;4.03;;;2.05;;
23474;SDS011;11910;52.086;21.066;2022-09-17T11:46:54;2.17;;;1.80;;
23474;SDS011;11910;52.086;21.066;2022-09-17T11:52:33;2.20;;;1.50;;
23474;SDS011;11910;52.086;21.066;2022-09-17T11:55:30;4.85;;;1.70;;
23474;SDS011;11910;52.086;21.066;2022-09-17T11:58:07;2.22;;;1.52;;
23474;SDS011;11910;52.086;21.066;2022-09-17T12:00:45;3.17;;;1.90;;
23474;SDS011;11910;52.086;21.066;2022-09-17T12:05:47;4.30;;;1.80;;
23474;SDS011;11910;52.086;21.066;2022-09-17T12:08:23;5.43;;;2.45;;
23474;SDS011;11910;52.086;21.066;2022-09-17T12:18:50;2.40;;;1.90;;
23474;SDS011;11910;52.086;21.066;2022-09-17T12:21:33;3.55;;;2.40;;
23474;SDS011;11910;52.086;21.066;2022-09-17T12:29:27;4.22;;;2.00;;
23474;SDS011;11910;52.086;21.066;2022-09-17T12:34:51;2.67;;;2.10;;
23474;SDS011;11910;52.086;21.066;2022-09-17T12:50:35;3.67;;;2.30;;
23474;SDS011;11910;52.086;21.066;2022-09-17T12:53:29;4.53;;;3.10;;
23474;SDS011;11910;52.086;21.066;2022-09-17T13:09:37;8.43;;;5.88;;
23474;SDS011;11910;52.086;21.066;2022-09-17T13:12:17;5.55;;;3.15;;
23474;SDS011;11910;52.086;21.066;2022-09-17T13:17:23;3.63;;;1.83;;
23474;SDS011;11910;52.086;21.066;2022-09-17T13:20:16;3.03;;;1.80;;
23474;SDS011;11910;52.086;21.066;2022-09-17T13:22:54;2.13;;;1.80;;
23474;SDS011;11910;52.086;21.066;2022-09-17T13:25:21;2.30;;;1.80;;
23474;SDS011;11910;52.086;21.066;2022-09-17T13:27:49;3.13;;;1.90;;
23474;SDS011;11910;52.086;21.066;2022-09-17T13:30:27;2.75;;;1.48;;
23474;SDS011;11910;52.086;21.066;2022-09-17T13:39:04;7.88;;;4.38;;
23474;SDS011;11910;52.086;21.066;2022-09-17T13:41:33;8.77;;;3.95;;
23474;SDS011;11910;52.086;21.066;2022-09-17T13:44:04;5.43;;;3.17;;
23474;SDS011;11910;52.086;21.066;2022-09-17T13:46:32;4.72;;;2.80;;
23474;SDS011;11910;52.086;21.066;2022-09-17T13:49:00;5.60;;;2.90;;
23474;SDS011;11910;52.086;21.066;2022-09-17T13:53:54;4.75;;;3.10;;
23474;SDS011;11910;52.086;21.066;2022-09-17T13:56:32;5.30;;;3.78;;
23474;SDS011;11910;52.086;21.066;2022-09-17T13:59:09;6.72;;;4.15;;
23474;SDS011;11910;52.086;21.066;2022-09-17T14:04:49;6.97;;;4.30;;
23474;SDS011;11910;52.086;21.066;2022-09-17T14:09:57;7.72;;;5.10;;
23474;SDS011;11910;52.086;21.066;2022-09-17T14:12:53;6.55;;;4.45;;
23474;SDS011;11910;52.086;21.066;2022-09-17T14:20:51;3.60;;;2.70;;
23474;SDS011;11910;52.086;21.066;2022-09-17T14:23:45;4.32;;;3.25;;
23474;SDS011;11910;52.086;21.066;2022-09-17T14:26:24;3.38;;;2.90;;
23474;SDS011;11910;52.086;21.066;2022-09-17T14:29:32;4.70;;;3.33;;
23474;SDS011;11910;52.086;21.066;2022-09-17T14:32:00;5.45;;;3.63;;
23474;SDS011;11910;52.086;21.066;2022-09-17T14:34:26;6.55;;;4.13;;
23474;SDS011;11910;52.086;21.066;2022-09-17T14:36:53;8.88;;;5.75;;
23474;SDS011;11910;52.086;21.066;2022-09-17T14:39:24;7.25;;;4.85;;
23474;SDS011;11910;52.086;21.066;2022-09-17T14:41:59;9.98;;;5.70;;
23474;SDS011;11910;52.086;21.066;2022-09-17T14:44:26;7.20;;;4.57;;
23474;SDS011;11910;52.086;21.066;2022-09-17T14:47:06;6.40;;;3.80;;
23474;SDS011;11910;52.086;21.066;2022-09-17T14:49:38;5.10;;;3.78;;
23474;SDS011;11910;52.086;21.066;2022-09-17T14:55:07;6.05;;;3.67;;
23474;SDS011;11910;52.086;21.066;2022-09-17T14:57:49;5.30;;;4.22;;
23474;SDS011;11910;52.086;21.066;2022-09-17T15:00:32;4.85;;;3.90;;
23474;SDS011;11910;52.086;21.066;2022-09-17T15:02:59;5.00;;;4.00;;
23474;SDS011;11910;52.086;21.066;2022-09-17T15:10:55;5.05;;;4.30;;
23474;SDS011;11910;52.086;21.066;2022-09-17T15:18:30;7.45;;;4.82;;
23474;SDS011;11910;52.086;21.066;2022-09-17T15:21:02;9.77;;;5.07;;
23474;SDS011;11910;52.086;21.066;2022-09-17T15:23:34;7.00;;;5.40;;
23474;SDS011;11910;52.086;21.066;2022-09-17T15:26:00;7.15;;;5.35;;
23474;SDS011;11910;52.086;21.066;2022-09-17T15:28:34;8.02;;;5.78;;
23474;SDS011;11910;52.086;21.066;2022-09-17T15:31:04;6.25;;;5.28;;
23474;SDS011;11910;52.086;21.066;2022-09-17T15:33:31;7.97;;;4.80;;
23474;SDS011;11910;52.086;21.066;2022-09-17T15:35:58;7.45;;;5.18;;
23474;SDS011;11910;52.086;21.066;2022-09-17T15:38:28;8.68;;;5.35;;
23474;SDS011;11910;52.086;21.066;2022-09-17T15:41:09;6.97;;;5.20;;
23474;SDS011;11910;52.086;21.066;2022-09-17T15:43:45;7.43;;;6.25;;
23474;SDS011;11910;52.086;21.066;2022-09-17T15:48:48;9.40;;;6.22;;
23474;SDS011;11910;52.086;21.066;2022-09-17T15:51:35;8.13;;;6.70;;
23474;SDS011;11910;52.086;21.066;2022-09-17T15:54:02;8.50;;;6.97;;
23474;SDS011;11910;52.086;21.066;2022-09-17T15:56:30;6.45;;;5.07;;
23474;SDS011;11910;52.086;21.066;2022-09-17T15:59:03;6.53;;;5.28;;
23474;SDS011;11910;52.086;21.066;2022-09-17T16:04:06;6.72;;;4.45;;
23474;SDS011;11910;52.086;21.066;2022-09-17T16:06:46;6.30;;;4.72;;
23474;SDS011;11910;52.086;21.066;2022-09-17T16:12:19;6.03;;;4.57;;
23474;SDS011;11910;52.086;21.066;2022-09-17T16:14:50;6.43;;;4.68;;
23474;SDS011;11910;52.086;21.066;2022-09-17T16:17:22;8.18;;;4.60;;
23474;SDS011;11910;52.086;21.066;2022-09-17T16:20:07;6.88;;;4.70;;
23474;SDS011;11910;52.086;21.066;2022-09-17T16:22:34;6.97;;;5.13;;
23474;SDS011;11910;52.086;21.066;2022-09-17T16:25:00;7.25;;;4.97;;
23474;SDS011;11910;52.086;21.066;2022-09-17T16:27:27;8.68;;;4.90;;
23474;SDS011;11910;52.086;21.066;2022-09-17T16:30:00;12.68;;;5.80;;
23474;SDS011;11910;52.086;21.066;2022-09-17T16:32:28;10.25;;;5.07;;
23474;SDS011;11910;52.086;21.066;2022-09-17T16:34:54;7.38;;;4.20;;
23474;SDS011;11910;52.086;21.066;2022-09-17T16:37:20;8.30;;;5.00;;
23474;SDS011;11910;52.086;21.066;2022-09-17T16:39:46;7.72;;;4.65;;
23474;SDS011;11910;52.086;21.066;2022-09-17T16:42:11;5.22;;;4.25;;
23474;SDS011;11910;52.086;21.066;2022-09-17T16:44:37;10.90;;;5.60;;
23474;SDS011;11910;52.086;21.066;2022-09-17T16:47:02;16.13;;;7.25;;
23474;SDS011;11910;52.086;21.066;2022-09-17T16:49:28;17.67;;;8.18;;
23474;SDS011;11910;52.086;21.066;2022-09-17T16:51:54;16.35;;;7.25;;
23474;SDS011;11910;52.086;21.066;2022-09-17T16:54:19;9.18;;;5.47;;
23474;SDS011;11910;52.086;21.066;2022-09-17T16:56:45;7.78;;;6.50;;
23474;SDS011;11910;52.086;21.066;2022-09-17T16:59:12;8.70;;;5.70;;
23474;SDS011;11910;52.086;21.066;2022-09-17T17:01:38;7.70;;;5.65;;
23474;SDS011;11910;52.086;21.066;2022-09-17T17:04:03;8.70;;;7.03;;
23474;SDS011;11910;52.086;21.066;2022-09-17T17:06:29;10.35;;;6.47;;
23474;SDS011;11910;52.086;21.066;2022-09-17T17:08:56;9.23;;;6.85;;
23474;SDS011;11910;52.086;21.066;2022-09-17T17:11:24;8.43;;;7.15;;
23474;SDS011;11910;52.086;21.066;2022-09-17T17:13:52;15.23;;;10.52;;
23474;SDS011;11910;52.086;21.066;2022-09-17T17:16:21;11.63;;;8.20;;
23474;SDS011;11910;52.086;21.066;2022-09-17T17:18:47;11.13;;;7.93;;
23474;SDS011;11910;52.086;21.066;2022-09-17T17:21:15;11.43;;;8.00;;
23474;SDS011;11910;52.086;21.066;2022-09-17T17:23:41;11.25;;;7.65;;
23474;SDS011;11910;52.086;21.066;2022-09-17T17:26:11;13.10;;;9.40;;
23474;SDS011;11910;52.086;21.066;2022-09-17T17:28:37;21.10;;;12.07;;
23474;SDS011;11910;52.086;21.066;2022-09-17T17:31:02;15.90;;;9.52;;
23474;SDS011;11910;52.086;21.066;2022-09-17T17:33:29;11.85;;;9.00;;
23474;SDS011;11910;52.086;21.066;2022-09-17T17:35:54;14.65;;;8.65;;
23474;SDS011;11910;52.086;21.066;2022-09-17T17:38:24;16.02;;;9.40;;
23474;SDS011;11910;52.086;21.066;2022-09-17T17:41:00;12.63;;;9.75;;
23474;SDS011;11910;52.086;21.066;2022-09-17T17:43:34;14.65;;;10.95;;
23474;SDS011;11910;52.086;21.066;2022-09-17T17:46:00;11.57;;;9.10;;
23474;SDS011;11910;52.086;21.066;2022-09-17T17:48:26;10.95;;;8.55;;
23474;SDS011;11910;52.086;21.066;2022-09-17T17:50:51;11.38;;;9.27;;
23474;SDS011;11910;52.086;21.066;2022-09-17T17:53:17;8.60;;;7.28;;
23474;SDS011;11910;52.086;21.066;2022-09-17T17:55:43;33.45;;;26.45;;
23474;SDS011;11910;52.086;21.066;2022-09-17T17:58:18;11.38;;;8.02;;
23474;SDS011;11910;52.086;21.066;2022-09-17T18:00:44;14.43;;;10.27;;
23474;SDS011;11910;52.086;21.066;2022-09-17T18:03:09;18.25;;;10.98;;
23474;SDS011;11910;52.086;21.066;2022-09-17T18:05:37;30.25;;;20.42;;
23474;SDS011;11910;52.086;21.066;2022-09-17T18:08:04;25.30;;;17.02;;
23474;SDS011;11910;52.086;21.066;2022-09-17T18:10:29;19.33;;;13.93;;
23474;SDS011;11910;52.086;21.066;2022-09-17T18:12:55;17.65;;;13.80;;
23474;SDS011;11910;52.086;21.066;2022-09-17T18:15:21;22.02;;;17.40;;
23474;SDS011;11910;52.086;21.066;2022-09-17T18:17:47;23.38;;;18.48;;
23474;SDS011;11910;52.086;21.066;2022-09-17T18:20:14;26.45;;;20.33;;
23474;SDS011;11910;52.086;21.066;2022-09-17T18:22:40;23.23;;;17.73;;
23474;SDS011;11910;52.086;21.066;2022-09-17T18:25:05;24.38;;;19.17;;
23474;SDS011;11910;52.086;21.066;2022-09-17T18:27:31;27.80;;;19.20;;